sensor_id;sensor_type;location;lat;lon;timestamp;pressure;altitude;pressure_sealevel;temperature
44429;BMP180;30134;47.866;-4.222;2023-04-01T00:01:01;100772.00;;;23.90
44429;BMP180;30134;47.866;-4.222;2023-04-01T00:03:28;100768.00;;;23.80
44429;BMP180;30134;47.866;-4.222;2023-04-01T00:05:55;100772.00;;;23.90
44429;BMP180;30134;47.866;-4.222;2023-04-01T00:08:22;100775.00;;;23.90
44429;BMP180;30134;47.866;-4.222;2023-04-01T00:10:48;100788.00;;;23.90
44429;BMP180;30134;47.866;-4.222;2023-04-01T00:13:14;100772.00;;;23.90
44429;BMP180;30134;47.866;-4.222;2023-04-01T00:15:41;100771.00;;;23.90
44429;BMP180;30134;47.866;-4.222;2023-04-01T00:18:08;100765.00;;;23.80
44429;BMP180;30134;47.866;-4.222;2023-04-01T00:20:49;100773.00;;;23.90
44429;BMP180;30134;47.866;-4.222;2023-04-01T00:23:17;100773.00;;;23.90
44429;BMP180;30134;47.866;-4.222;2023-04-01T00:25:44;100766.00;;;23.90
44429;BMP180;30134;47.866;-4.222;2023-04-01T00:28:12;100765.00;;;23.90
44429;BMP180;30134;47.866;-4.222;2023-04-01T00:30:38;100770.00;;;23.90
44429;BMP180;30134;47.866;-4.222;2023-04-01T00:33:04;100777.00;;;23.80
44429;BMP180;30134;47.866;-4.222;2023-04-01T00:35:30;100772.00;;;23.90
44429;BMP180;30134;47.866;-4.222;2023-04-01T00:37:58;100763.00;;;23.90
44429;BMP180;30134;47.866;-4.222;2023-04-01T00:40:33;100763.00;;;23.80
44429;BMP180;30134;47.866;-4.222;2023-04-01T00:43:03;100768.00;;;23.80
44429;BMP180;30134;47.866;-4.222;2023-04-01T00:45:37;100763.00;;;23.80
44429;BMP180;30134;47.866;-4.222;2023-04-01T00:48:14;100752.00;;;23.90
44429;BMP180;30134;47.866;-4.222;2023-04-01T00:50:46;100752.00;;;23.90
44429;BMP180;30134;47.866;-4.222;2023-04-01T00:53:13;100756.00;;;23.90
44429;BMP180;30134;47.866;-4.222;2023-04-01T00:55:44;100762.00;;;23.80
44429;BMP180;30134;47.866;-4.222;2023-04-01T00:58:16;100757.00;;;23.80
44429;BMP180;30134;47.866;-4.222;2023-04-01T01:00:45;100759.00;;;23.90
44429;BMP180;30134;47.866;-4.222;2023-04-01T01:03:14;100761.00;;;23.90
44429;BMP180;30134;47.866;-4.222;2023-04-01T01:06:17;100760.00;;;23.80
44429;BMP180;30134;47.866;-4.222;2023-04-01T01:12:13;100765.00;;;23.80
44429;BMP180;30134;47.866;-4.222;2023-04-01T01:15:02;100762.00;;;23.90
44429;BMP180;30134;47.866;-4.222;2023-04-01T01:17:58;100764.00;;;23.80
44429;BMP180;30134;47.866;-4.222;2023-04-01T01:24:17;100765.00;;;23.80
44429;BMP180;30134;47.866;-4.222;2023-04-01T01:27:10;100759.00;;;23.80
44429;BMP180;30134;47.866;-4.222;2023-04-01T01:30:13;100762.00;;;23.80
44429;BMP180;30134;47.866;-4.222;2023-04-01T01:35:44;100765.00;;;23.80
44429;BMP180;30134;47.866;-4.222;2023-04-01T01:38:33;100764.00;;;23.90
44429;BMP180;30134;47.866;-4.222;2023-04-01T01:41:05;100768.00;;;23.90
44429;BMP180;30134;47.866;-4.222;2023-04-01T01:43:39;100775.00;;;23.80
44429;BMP180;30134;47.866;-4.222;2023-04-01T01:46:12;100775.00;;;23.90
44429;BMP180;30134;47.866;-4.222;2023-04-01T01:48:41;100767.00;;;23.80
44429;BMP180;30134;47.866;-4.222;2023-04-01T01:51:08;100770.00;;;23.80
44429;BMP180;30134;47.866;-4.222;2023-04-01T01:53:35;100775.00;;;23.80
44429;BMP180;30134;47.866;-4.222;2023-04-01T01:56:02;100767.00;;;23.80
44429;BMP180;30134;47.866;-4.222;2023-04-01T01:58:51;100767.00;;;23.80
44429;BMP180;30134;47.866;-4.222;2023-04-01T02:01:26;100765.00;;;23.80
44429;BMP180;30134;47.866;-4.222;2023-04-01T02:03:53;100765.00;;;24.00
44429;BMP180;30134;47.866;-4.222;2023-04-01T02:06:23;100766.00;;;24.10
44429;BMP180;30134;47.866;-4.222;2023-04-01T02:11:36;100764.00;;;23.90
44429;BMP180;30134;47.866;-4.222;2023-04-01T02:14:22;100770.00;;;23.80
44429;BMP180;30134;47.866;-4.222;2023-04-01T02:17:00;100769.00;;;23.80
44429;BMP180;30134;47.866;-4.222;2023-04-01T02:19:41;100766.00;;;23.90
44429;BMP180;30134;47.866;-4.222;2023-04-01T02:22:14;100763.00;;;23.80
44429;BMP180;30134;47.866;-4.222;2023-04-01T02:24:42;100761.00;;;23.80
44429;BMP180;30134;47.866;-4.222;2023-04-01T02:27:12;100761.00;;;23.80
44429;BMP180;30134;47.866;-4.222;2023-04-01T02:29:38;100761.00;;;23.90
44429;BMP180;30134;47.866;-4.222;2023-04-01T02:32:06;100758.00;;;23.80
44429;BMP180;30134;47.866;-4.222;2023-04-01T02:34:33;100754.00;;;23.80
44429;BMP180;30134;47.866;-4.222;2023-04-01T02:36:59;100759.00;;;23.80
44429;BMP180;30134;47.866;-4.222;2023-04-01T02:39:25;100755.00;;;23.80
44429;BMP180;30134;47.866;-4.222;2023-04-01T02:41:52;100759.00;;;23.80
44429;BMP180;30134;47.866;-4.222;2023-04-01T02:44:19;100754.00;;;23.80
44429;BMP180;30134;47.866;-4.222;2023-04-01T02:46:45;100762.00;;;23.80
44429;BMP180;30134;47.866;-4.222;2023-04-01T02:49:11;100761.00;;;23.80
44429;BMP180;30134;47.866;-4.222;2023-04-01T02:51:37;100759.00;;;23.80
44429;BMP180;30134;47.866;-4.222;2023-04-01T02:54:04;100758.00;;;23.80
44429;BMP180;30134;47.866;-4.222;2023-04-01T02:56:29;100760.00;;;23.80
44429;BMP180;30134;47.866;-4.222;2023-04-01T02:58:56;100763.00;;;23.80
44429;BMP180;30134;47.866;-4.222;2023-04-01T03:01:22;100762.00;;;23.70
44429;BMP180;30134;47.866;-4.222;2023-04-01T03:03:49;100760.00;;;23.70
44429;BMP180;30134;47.866;-4.222;2023-04-01T03:06:16;100760.00;;;23.70
44429;BMP180;30134;47.866;-4.222;2023-04-01T03:08:43;100761.00;;;23.70
44429;BMP180;30134;47.866;-4.222;2023-04-01T03:11:10;100761.00;;;23.80
44429;BMP180;30134;47.866;-4.222;2023-04-01T03:13:37;100755.00;;;23.80
44429;BMP180;30134;47.866;-4.222;2023-04-01T03:16:03;100754.00;;;23.80
44429;BMP180;30134;47.866;-4.222;2023-04-01T03:18:29;100758.00;;;23.80
44429;BMP180;30134;47.866;-4.222;2023-04-01T03:20:55;100753.00;;;23.80
44429;BMP180;30134;47.866;-4.222;2023-04-01T03:23:21;100745.00;;;23.80
44429;BMP180;30134;47.866;-4.222;2023-04-01T03:25:50;100755.00;;;23.80
44429;BMP180;30134;47.866;-4.222;2023-04-01T03:28:16;100757.00;;;23.80
44429;BMP180;30134;47.866;-4.222;2023-04-01T03:30:42;100746.00;;;23.80
44429;BMP180;30134;47.866;-4.222;2023-04-01T03:33:08;100745.00;;;23.80
44429;BMP180;30134;47.866;-4.222;2023-04-01T03:35:34;100741.00;;;23.80
44429;BMP180;30134;47.866;-4.222;2023-04-01T03:38:02;100734.00;;;23.80
44429;BMP180;30134;47.866;-4.222;2023-04-01T03:40:28;100730.00;;;23.80
44429;BMP180;30134;47.866;-4.222;2023-04-01T03:42:54;100730.00;;;23.70
44429;BMP180;30134;47.866;-4.222;2023-04-01T03:45:22;100736.00;;;23.70
44429;BMP180;30134;47.866;-4.222;2023-04-01T03:47:48;100739.00;;;23.80
44429;BMP180;30134;47.866;-4.222;2023-04-01T03:50:14;100751.00;;;23.70
44429;BMP180;30134;47.866;-4.222;2023-04-01T03:52:40;100752.00;;;23.70
44429;BMP180;30134;47.866;-4.222;2023-04-01T03:55:06;100753.00;;;23.70
44429;BMP180;30134;47.866;-4.222;2023-04-01T03:57:32;100752.00;;;23.70
44429;BMP180;30134;47.866;-4.222;2023-04-01T03:59:58;100753.00;;;23.80
44429;BMP180;30134;47.866;-4.222;2023-04-01T04:02:24;100753.00;;;23.80
44429;BMP180;30134;47.866;-4.222;2023-04-01T04:04:50;100747.00;;;23.70
44429;BMP180;30134;47.866;-4.222;2023-04-01T04:07:16;100749.00;;;23.80
44429;BMP180;30134;47.866;-4.222;2023-04-01T04:09:42;100733.00;;;23.70
44429;BMP180;30134;47.866;-4.222;2023-04-01T04:12:08;100727.00;;;23.80
44429;BMP180;30134;47.866;-4.222;2023-04-01T04:14:35;100722.00;;;23.80
44429;BMP180;30134;47.866;-4.222;2023-04-01T04:17:01;100723.00;;;23.70
44429;BMP180;30134;47.866;-4.222;2023-04-01T04:19:32;100726.00;;;23.80
44429;BMP180;30134;47.866;-4.222;2023-04-01T04:21:59;100724.00;;;23.80
44429;BMP180;30134;47.866;-4.222;2023-04-01T04:24:27;100730.00;;;23.80
44429;BMP180;30134;47.866;-4.222;2023-04-01T04:26:53;100735.00;;;23.80
44429;BMP180;30134;47.866;-4.222;2023-04-01T04:29:19;100726.00;;;23.70
44429;BMP180;30134;47.866;-4.222;2023-04-01T04:31:45;100739.00;;;23.70
44429;BMP180;30134;47.866;-4.222;2023-04-01T04:34:11;100742.00;;;23.70
44429;BMP180;30134;47.866;-4.222;2023-04-01T04:36:37;100733.00;;;23.70
44429;BMP180;30134;47.866;-4.222;2023-04-01T04:39:03;100742.00;;;23.80
44429;BMP180;30134;47.866;-4.222;2023-04-01T04:41:29;100730.00;;;23.70
44429;BMP180;30134;47.866;-4.222;2023-04-01T04:43:56;100732.00;;;23.80
44429;BMP180;30134;47.866;-4.222;2023-04-01T04:46:24;100735.00;;;23.80
44429;BMP180;30134;47.866;-4.222;2023-04-01T04:48:50;100737.00;;;23.70
44429;BMP180;30134;47.866;-4.222;2023-04-01T04:51:19;100738.00;;;23.70
44429;BMP180;30134;47.866;-4.222;2023-04-01T04:53:46;100742.00;;;23.80
44429;BMP180;30134;47.866;-4.222;2023-04-01T04:56:13;100733.00;;;23.70
44429;BMP180;30134;47.866;-4.222;2023-04-01T04:58:39;100731.00;;;23.70
44429;BMP180;30134;47.866;-4.222;2023-04-01T05:01:16;100728.00;;;23.80
44429;BMP180;30134;47.866;-4.222;2023-04-01T05:03:43;100725.00;;;23.80
44429;BMP180;30134;47.866;-4.222;2023-04-01T05:06:12;100725.00;;;23.80
44429;BMP180;30134;47.866;-4.222;2023-04-01T05:08:39;100729.00;;;23.70
44429;BMP180;30134;47.866;-4.222;2023-04-01T05:11:17;100723.00;;;23.70
44429;BMP180;30134;47.866;-4.222;2023-04-01T05:13:44;100727.00;;;23.70
44429;BMP180;30134;47.866;-4.222;2023-04-01T05:16:17;100733.00;;;23.70
44429;BMP180;30134;47.866;-4.222;2023-04-01T05:18:43;100722.00;;;23.70
44429;BMP180;30134;47.866;-4.222;2023-04-01T05:21:12;100729.00;;;23.70
44429;BMP180;30134;47.866;-4.222;2023-04-01T05:23:39;100731.00;;;23.70
44429;BMP180;30134;47.866;-4.222;2023-04-01T05:26:07;100725.00;;;23.70
44429;BMP180;30134;47.866;-4.222;2023-04-01T05:28:34;100726.00;;;23.70
44429;BMP180;30134;47.866;-4.222;2023-04-01T05:31:01;100731.00;;;23.70
44429;BMP180;30134;47.866;-4.222;2023-04-01T05:33:28;100727.00;;;23.70
44429;BMP180;30134;47.866;-4.222;2023-04-01T05:35:55;100725.00;;;23.70
44429;BMP180;30134;47.866;-4.222;2023-04-01T05:38:22;100726.00;;;23.70
44429;BMP180;30134;47.866;-4.222;2023-04-01T05:40:48;100732.00;;;23.70
44429;BMP180;30134;47.866;-4.222;2023-04-01T05:43:14;100738.00;;;23.70
44429;BMP180;30134;47.866;-4.222;2023-04-01T05:45:40;100738.00;;;23.70
44429;BMP180;30134;47.866;-4.222;2023-04-01T05:48:06;100735.00;;;23.70
44429;BMP180;30134;47.866;-4.222;2023-04-01T05:50:32;100747.00;;;23.70
44429;BMP180;30134;47.866;-4.222;2023-04-01T05:52:58;100726.00;;;23.70
44429;BMP180;30134;47.866;-4.222;2023-04-01T05:55:24;100737.00;;;23.70
44429;BMP180;30134;47.866;-4.222;2023-04-01T05:57:50;100742.00;;;23.70
44429;BMP180;30134;47.866;-4.222;2023-04-01T06:00:17;100740.00;;;23.70
44429;BMP180;30134;47.866;-4.222;2023-04-01T06:02:45;100749.00;;;23.80
44429;BMP180;30134;47.866;-4.222;2023-04-01T06:05:18;100749.00;;;23.70
44429;BMP180;30134;47.866;-4.222;2023-04-01T06:07:44;100740.00;;;23.70
44429;BMP180;30134;47.866;-4.222;2023-04-01T06:10:21;100754.00;;;23.70
44429;BMP180;30134;47.866;-4.222;2023-04-01T06:13:03;100751.00;;;23.70
44429;BMP180;30134;47.866;-4.222;2023-04-01T06:18:50;100751.00;;;23.70
44429;BMP180;30134;47.866;-4.222;2023-04-01T06:31:44;100763.00;;;23.60
44429;BMP180;30134;47.866;-4.222;2023-04-01T06:34:31;100762.00;;;23.70
44429;BMP180;30134;47.866;-4.222;2023-04-01T06:37:10;100760.00;;;23.70
44429;BMP180;30134;47.866;-4.222;2023-04-01T06:40:00;100767.00;;;23.60
44429;BMP180;30134;47.866;-4.222;2023-04-01T06:42:48;100765.00;;;23.70
44429;BMP180;30134;47.866;-4.222;2023-04-01T06:45:55;100766.00;;;23.60
44429;BMP180;30134;47.866;-4.222;2023-04-01T06:49:04;100767.00;;;23.60
44429;BMP180;30134;47.866;-4.222;2023-04-01T06:51:58;100770.00;;;23.70
44429;BMP180;30134;47.866;-4.222;2023-04-01T06:54:55;100770.00;;;23.70
44429;BMP180;30134;47.866;-4.222;2023-04-01T06:57:43;100775.00;;;23.60
44429;BMP180;30134;47.866;-4.222;2023-04-01T07:00:31;100774.00;;;23.60
44429;BMP180;30134;47.866;-4.222;2023-04-01T07:03:43;100775.00;;;23.70
44429;BMP180;30134;47.866;-4.222;2023-04-01T07:06:27;100770.00;;;23.70
44429;BMP180;30134;47.866;-4.222;2023-04-01T07:08:55;100772.00;;;23.60
44429;BMP180;30134;47.866;-4.222;2023-04-01T07:11:29;100769.00;;;23.60
44429;BMP180;30134;47.866;-4.222;2023-04-01T07:17:28;100767.00;;;23.60
44429;BMP180;30134;47.866;-4.222;2023-04-01T07:22:35;100773.00;;;23.70
44429;BMP180;30134;47.866;-4.222;2023-04-01T07:25:38;100787.00;;;23.60
44429;BMP180;30134;47.866;-4.222;2023-04-01T07:28:16;100786.00;;;23.70
44429;BMP180;30134;47.866;-4.222;2023-04-01T07:31:16;100771.00;;;23.70
44429;BMP180;30134;47.866;-4.222;2023-04-01T07:34:15;100787.00;;;23.70
44429;BMP180;30134;47.866;-4.222;2023-04-01T07:42:32;100782.00;;;23.60
44429;BMP180;30134;47.866;-4.222;2023-04-01T07:45:36;100785.00;;;23.60
44429;BMP180;30134;47.866;-4.222;2023-04-01T07:51:52;100789.00;;;23.60
44429;BMP180;30134;47.866;-4.222;2023-04-01T07:54:41;100797.00;;;23.60
44429;BMP180;30134;47.866;-4.222;2023-04-01T07:57:36;100802.00;;;23.60
44429;BMP180;30134;47.866;-4.222;2023-04-01T08:05:56;100803.00;;;23.50
44429;BMP180;30134;47.866;-4.222;2023-04-01T08:11:40;100799.00;;;23.50
44429;BMP180;30134;47.866;-4.222;2023-04-01T08:14:39;100817.00;;;23.50
44429;BMP180;30134;47.866;-4.222;2023-04-01T08:17:28;100814.00;;;23.50
44429;BMP180;30134;47.866;-4.222;2023-04-01T08:22:53;100820.00;;;23.40
44429;BMP180;30134;47.866;-4.222;2023-04-01T08:25:28;100809.00;;;23.40
44429;BMP180;30134;47.866;-4.222;2023-04-01T08:31:13;100814.00;;;23.40
44429;BMP180;30134;47.866;-4.222;2023-04-01T08:33:42;100819.00;;;23.50
44429;BMP180;30134;47.866;-4.222;2023-04-01T08:47:56;100851.00;;;23.50
44429;BMP180;30134;47.866;-4.222;2023-04-01T08:51:05;100848.00;;;23.40
44429;BMP180;30134;47.866;-4.222;2023-04-01T08:57:00;100866.00;;;23.30
44429;BMP180;30134;47.866;-4.222;2023-04-01T09:08:29;100861.00;;;23.20
44429;BMP180;30134;47.866;-4.222;2023-04-01T09:11:04;100862.00;;;23.20
44429;BMP180;30134;47.866;-4.222;2023-04-01T09:19:18;100859.00;;;23.30
44429;BMP180;30134;47.866;-4.222;2023-04-01T09:30:39;100859.00;;;23.30
44429;BMP180;30134;47.866;-4.222;2023-04-01T09:38:59;100862.00;;;23.30
44429;BMP180;30134;47.866;-4.222;2023-04-01T09:45:01;100876.00;;;23.30
44429;BMP180;30134;47.866;-4.222;2023-04-01T09:51:22;100865.00;;;23.30
44429;BMP180;30134;47.866;-4.222;2023-04-01T10:00:50;100897.00;;;20.80
44429;BMP180;30134;47.866;-4.222;2023-04-01T10:22:35;100893.00;;;20.40
44429;BMP180;30134;47.866;-4.222;2023-04-01T10:34:47;100897.00;;;20.20
44429;BMP180;30134;47.866;-4.222;2023-04-01T10:59:15;100896.00;;;20.20
44429;BMP180;30134;47.866;-4.222;2023-04-01T11:02:33;100913.00;;;20.20
44429;BMP180;30134;47.866;-4.222;2023-04-01T11:23:14;100914.00;;;19.90
44429;BMP180;30134;47.866;-4.222;2023-04-01T11:26:04;100909.00;;;19.90
44429;BMP180;30134;47.866;-4.222;2023-04-01T11:31:55;100915.00;;;19.80
44429;BMP180;30134;47.866;-4.222;2023-04-01T11:34:55;100911.00;;;19.90
44429;BMP180;30134;47.866;-4.222;2023-04-01T11:38:02;100911.00;;;19.80
44429;BMP180;30134;47.866;-4.222;2023-04-01T11:43:37;100920.00;;;19.70
44429;BMP180;30134;47.866;-4.222;2023-04-01T11:46:25;100933.00;;;19.70
44429;BMP180;30134;47.866;-4.222;2023-04-01T11:49:26;100920.00;;;19.70
44429;BMP180;30134;47.866;-4.222;2023-04-01T11:52:32;100926.00;;;19.70
44429;BMP180;30134;47.866;-4.222;2023-04-01T11:55:38;100930.00;;;19.70
44429;BMP180;30134;47.866;-4.222;2023-04-01T12:01:17;100929.00;;;19.60
44429;BMP180;30134;47.866;-4.222;2023-04-01T12:07:19;100926.00;;;19.70
44429;BMP180;30134;47.866;-4.222;2023-04-01T12:13:35;100916.00;;;19.60
44429;BMP180;30134;47.866;-4.222;2023-04-01T12:16:34;100927.00;;;19.80
44429;BMP180;30134;47.866;-4.222;2023-04-01T12:19:23;100938.00;;;19.70
44429;BMP180;30134;47.866;-4.222;2023-04-01T12:24:56;100936.00;;;19.60
44429;BMP180;30134;47.866;-4.222;2023-04-01T12:28:06;100944.00;;;19.60
44429;BMP180;30134;47.866;-4.222;2023-04-01T12:36:46;100928.00;;;19.50
44429;BMP180;30134;47.866;-4.222;2023-04-01T12:39:48;100946.00;;;19.60
44429;BMP180;30134;47.866;-4.222;2023-04-01T12:42:50;100933.00;;;19.60
44429;BMP180;30134;47.866;-4.222;2023-04-01T12:49:03;100946.00;;;19.60
44429;BMP180;30134;47.866;-4.222;2023-04-01T13:10:15;100947.00;;;19.50
44429;BMP180;30134;47.866;-4.222;2023-04-01T13:19:03;100953.00;;;19.50
44429;BMP180;30134;47.866;-4.222;2023-04-01T13:21:47;100939.00;;;19.50
44429;BMP180;30134;47.866;-4.222;2023-04-01T13:24:37;100946.00;;;19.60
44429;BMP180;30134;47.866;-4.222;2023-04-01T13:36:10;100976.00;;;19.50
44429;BMP180;30134;47.866;-4.222;2023-04-01T14:00:49;100980.00;;;19.60
44429;BMP180;30134;47.866;-4.222;2023-04-01T14:03:27;100978.00;;;19.60
44429;BMP180;30134;47.866;-4.222;2023-04-01T14:12:36;100975.00;;;19.70
44429;BMP180;30134;47.866;-4.222;2023-04-01T14:24:13;101001.00;;;19.60
44429;BMP180;30134;47.866;-4.222;2023-04-01T14:27:16;100999.00;;;19.60
44429;BMP180;30134;47.866;-4.222;2023-04-01T14:47:34;101015.00;;;19.80
44429;BMP180;30134;47.866;-4.222;2023-04-01T14:50:09;101023.00;;;19.80
44429;BMP180;30134;47.866;-4.222;2023-04-01T14:58:11;101022.00;;;19.90
44429;BMP180;30134;47.866;-4.222;2023-04-01T15:18:34;101033.00;;;21.20
44429;BMP180;30134;47.866;-4.222;2023-04-01T15:21:48;101030.00;;;20.90
44429;BMP180;30134;47.866;-4.222;2023-04-01T15:24:52;101036.00;;;21.20
44429;BMP180;30134;47.866;-4.222;2023-04-01T15:27:44;101036.00;;;21.40
44429;BMP180;30134;47.866;-4.222;2023-04-01T15:30:19;101043.00;;;21.40
44429;BMP180;30134;47.866;-4.222;2023-04-01T15:33:29;101048.00;;;21.50
44429;BMP180;30134;47.866;-4.222;2023-04-01T15:36:06;101048.00;;;21.60
44429;BMP180;30134;47.866;-4.222;2023-04-01T15:39:19;101051.00;;;21.60
44429;BMP180;30134;47.866;-4.222;2023-04-01T15:46:09;101070.00;;;21.70
44429;BMP180;30134;47.866;-4.222;2023-04-01T15:51:05;101060.00;;;21.70
44429;BMP180;30134;47.866;-4.222;2023-04-01T16:09:14;101091.00;;;22.00
44429;BMP180;30134;47.866;-4.222;2023-04-01T16:11:48;101103.00;;;22.10
44429;BMP180;30134;47.866;-4.222;2023-04-01T16:15:21;101103.00;;;22.00
44429;BMP180;30134;47.866;-4.222;2023-04-01T16:26:28;101118.00;;;22.10
44429;BMP180;30134;47.866;-4.222;2023-04-01T16:29:07;101120.00;;;22.10
44429;BMP180;30134;47.866;-4.222;2023-04-01T16:37:45;101136.00;;;22.20
44429;BMP180;30134;47.866;-4.222;2023-04-01T16:40:44;101147.00;;;22.20
44429;BMP180;30134;47.866;-4.222;2023-04-01T16:46:34;101150.00;;;22.20
44429;BMP180;30134;47.866;-4.222;2023-04-01T16:49:45;101149.00;;;22.30
44429;BMP180;30134;47.866;-4.222;2023-04-01T16:52:15;101151.00;;;22.40
44429;BMP180;30134;47.866;-4.222;2023-04-01T16:55:16;101164.00;;;22.30
44429;BMP180;30134;47.866;-4.222;2023-04-01T16:57:56;101167.00;;;22.30
44429;BMP180;30134;47.866;-4.222;2023-04-01T17:00:27;101170.00;;;22.40
44429;BMP180;30134;47.866;-4.222;2023-04-01T17:03:32;101176.00;;;22.40
44429;BMP180;30134;47.866;-4.222;2023-04-01T17:06:18;101170.00;;;22.40
44429;BMP180;30134;47.866;-4.222;2023-04-01T17:14:44;101195.00;;;22.50
44429;BMP180;30134;47.866;-4.222;2023-04-01T17:23:39;101197.00;;;22.60
44429;BMP180;30134;47.866;-4.222;2023-04-01T17:29:02;101203.00;;;22.60
44429;BMP180;30134;47.866;-4.222;2023-04-01T17:31:46;101212.00;;;22.50
44429;BMP180;30134;47.866;-4.222;2023-04-01T17:42:37;101212.00;;;22.60
44429;BMP180;30134;47.866;-4.222;2023-04-01T17:51:23;101234.00;;;22.50
44429;BMP180;30134;47.866;-4.222;2023-04-01T17:54:11;101240.00;;;22.60
44429;BMP180;30134;47.866;-4.222;2023-04-01T17:59:44;101248.00;;;22.70
44429;BMP180;30134;47.866;-4.222;2023-04-01T18:05:34;101256.00;;;22.80
44429;BMP180;30134;47.866;-4.222;2023-04-01T18:14:39;101273.00;;;22.70
44429;BMP180;30134;47.866;-4.222;2023-04-01T18:23:12;101272.00;;;22.80
44429;BMP180;30134;47.866;-4.222;2023-04-01T18:25:44;101281.00;;;22.80
44429;BMP180;30134;47.866;-4.222;2023-04-01T18:31:47;101294.00;;;22.90
44429;BMP180;30134;47.866;-4.222;2023-04-01T18:34:54;101304.00;;;22.80
44429;BMP180;30134;47.866;-4.222;2023-04-01T18:37:42;101301.00;;;22.90
44429;BMP180;30134;47.866;-4.222;2023-04-01T18:40:42;101305.00;;;22.90
44429;BMP180;30134;47.866;-4.222;2023-04-01T18:43:33;101320.00;;;22.90
44429;BMP180;30134;47.866;-4.222;2023-04-01T18:46:22;101329.00;;;22.90
44429;BMP180;30134;47.866;-4.222;2023-04-01T18:52:33;101347.00;;;22.80
44429;BMP180;30134;47.866;-4.222;2023-04-01T19:01:37;101363.00;;;23.00
44429;BMP180;30134;47.866;-4.222;2023-04-01T19:04:08;101359.00;;;23.00
44429;BMP180;30134;47.866;-4.222;2023-04-01T19:06:51;101356.00;;;23.40
44429;BMP180;30134;47.866;-4.222;2023-04-01T19:09:24;101366.00;;;23.20
44429;BMP180;30134;47.866;-4.222;2023-04-01T19:15:08;101364.00;;;23.10
44429;BMP180;30134;47.866;-4.222;2023-04-01T19:18:02;101377.00;;;23.00
44429;BMP180;30134;47.866;-4.222;2023-04-01T19:21:37;101382.00;;;23.10
44429;BMP180;30134;47.866;-4.222;2023-04-01T19:27:14;101393.00;;;23.00
44429;BMP180;30134;47.866;-4.222;2023-04-01T19:30:07;101400.00;;;23.10
44429;BMP180;30134;47.866;-4.222;2023-04-01T19:38:26;101409.00;;;23.10
44429;BMP180;30134;47.866;-4.222;2023-04-01T19:46:45;101415.00;;;23.10
44429;BMP180;30134;47.866;-4.222;2023-04-01T19:52:31;101429.00;;;23.20
44429;BMP180;30134;47.866;-4.222;2023-04-01T20:00:53;101438.00;;;23.10
44429;BMP180;30134;47.866;-4.222;2023-04-01T20:04:04;101446.00;;;23.20
44429;BMP180;30134;47.866;-4.222;2023-04-01T20:07:07;101451.00;;;23.20
44429;BMP180;30134;47.866;-4.222;2023-04-01T20:15:41;101471.00;;;23.20
44429;BMP180;30134;47.866;-4.222;2023-04-01T20:18:44;101483.00;;;23.10
44429;BMP180;30134;47.866;-4.222;2023-04-01T20:26:27;101495.00;;;23.20
44429;BMP180;30134;47.866;-4.222;2023-04-01T20:31:43;101507.00;;;23.20
44429;BMP180;30134;47.866;-4.222;2023-04-01T20:43:23;101532.00;;;23.20
44429;BMP180;30134;47.866;-4.222;2023-04-01T20:46:23;101538.00;;;23.20
44429;BMP180;30134;47.866;-4.222;2023-04-01T20:49:21;101538.00;;;23.20
44429;BMP180;30134;47.866;-4.222;2023-04-01T20:54:59;101547.00;;;23.30
44429;BMP180;30134;47.866;-4.222;2023-04-01T21:09:29;101564.00;;;23.00
44429;BMP180;30134;47.866;-4.222;2023-04-01T21:23:40;101589.00;;;20.70
44429;BMP180;30134;47.866;-4.222;2023-04-01T21:37:46;101626.00;;;22.70
44429;BMP180;30134;47.866;-4.222;2023-04-01T21:40:47;101629.00;;;22.80
44429;BMP180;30134;47.866;-4.222;2023-04-01T21:44:03;101649.00;;;22.80
44429;BMP180;30134;47.866;-4.222;2023-04-01T21:52:43;101655.00;;;23.00
44429;BMP180;30134;47.866;-4.222;2023-04-01T21:58:06;101665.00;;;23.00
44429;BMP180;30134;47.866;-4.222;2023-04-01T22:01:11;101669.00;;;23.00
44429;BMP180;30134;47.866;-4.222;2023-04-01T22:06:50;101658.00;;;23.10
44429;BMP180;30134;47.866;-4.222;2023-04-01T22:13:10;101668.00;;;23.10
44429;BMP180;30134;47.866;-4.222;2023-04-01T22:21:54;101685.00;;;23.10
44429;BMP180;30134;47.866;-4.222;2023-04-01T22:25:07;101682.00;;;23.10
44429;BMP180;30134;47.866;-4.222;2023-04-01T22:27:50;101685.00;;;23.10
44429;BMP180;30134;47.866;-4.222;2023-04-01T22:30:27;101690.00;;;23.20
44429;BMP180;30134;47.866;-4.222;2023-04-01T22:33:11;101694.00;;;23.20
44429;BMP180;30134;47.866;-4.222;2023-04-01T22:38:32;101714.00;;;23.10
44429;BMP180;30134;47.866;-4.222;2023-04-01T22:41:42;101704.00;;;23.10
44429;BMP180;30134;47.866;-4.222;2023-04-01T22:48:04;101714.00;;;23.10
44429;BMP180;30134;47.866;-4.222;2023-04-01T22:56:07;101720.00;;;23.20
44429;BMP180;30134;47.866;-4.222;2023-04-01T22:58:41;101730.00;;;23.10
44429;BMP180;30134;47.866;-4.222;2023-04-01T23:01:22;101735.00;;;23.20
44429;BMP180;30134;47.866;-4.222;2023-04-01T23:03:52;101728.00;;;23.20
44429;BMP180;30134;47.866;-4.222;2023-04-01T23:06:31;101727.00;;;23.20
44429;BMP180;30134;47.866;-4.222;2023-04-01T23:09:21;101726.00;;;23.20
44429;BMP180;30134;47.866;-4.222;2023-04-01T23:12:05;101727.00;;;23.20
44429;BMP180;30134;47.866;-4.222;2023-04-01T23:14:50;101732.00;;;23.20
44429;BMP180;30134;47.866;-4.222;2023-04-01T23:20:22;101736.00;;;23.20
44429;BMP180;30134;47.866;-4.222;2023-04-01T23:28:51;101740.00;;;23.20
44429;BMP180;30134;47.866;-4.222;2023-04-01T23:31:39;101739.00;;;23.30
44429;BMP180;30134;47.866;-4.222;2023-04-01T23:36:56;101737.00;;;23.30
44429;BMP180;30134;47.866;-4.222;2023-04-01T23:39:41;101746.00;;;23.30
44429;BMP180;30134;47.866;-4.222;2023-04-01T23:42:23;101747.00;;;23.30
44429;BMP180;30134;47.866;-4.222;2023-04-01T23:44:53;101753.00;;;23.30
44429;BMP180;30134;47.866;-4.222;2023-04-01T23:47:37;101752.00;;;23.30
44429;BMP180;30134;47.866;-4.222;2023-04-01T23:50:11;101757.00;;;23.30
44429;BMP180;30134;47.866;-4.222;2023-04-01T23:52:52;101753.00;;;23.30
44429;BMP180;30134;47.866;-4.222;2023-04-01T23:55:31;101750.00;;;23.30
